• Join FlightAware (Why Join?)
  • Login
  • US Flag 
11:45AM EDT


 

Airport Tracker/Info


-or-


 

Live Flight TrackerFlight Track Log ✈ AAR8731 ✈ 23-Nov-2013 ✈ RKSS / GMP - RKJY / RSU

Flight Track Log - Related Links

Times and Time Zones

All times are in EST time to prevent confusion due to time zone crossing. See the AAR8731 flight status page for this flight to view local times or setup timezone preferences in your user account.

Time Position Orientation Groundspeed Altitude Reporting Facility
EST Latitude Longitude Course Direction KTS MPH feet Rate Location/Type
05:32PM 37.3315 126.8617 166° South  Level Estimated
05:33PM 37.2559 126.8853 166° South  Level Estimated
05:34PM 37.1803 126.9089 166° South  Level Estimated
05:35PM 37.1046 126.9324 166° South  Level Estimated
05:36PM 37.0290 126.9559 166° South  Level Estimated
05:37PM 36.9534 126.9793 166° South  Level Estimated
05:38PM 36.8778 127.0027 166° South  Level Estimated
05:39PM 36.8021 127.0260 166° South  Level Estimated
05:40PM 36.7265 127.0493 166° South  Level Estimated
05:41PM 36.6508 127.0725 166° South  Level Estimated
05:42PM 36.5752 127.0957 166° South  Level Estimated
05:43PM 36.4995 127.1189 166° South  Level Estimated
05:44PM 36.4239 127.1420 166° South  Level Estimated
05:45PM 36.3482 127.1650 166° South  Level Estimated
05:46PM 36.2725 127.1880 166° South  Level Estimated
05:47PM 36.1968 127.2110 166° South  Level Estimated
05:48PM 36.1212 127.2339 166° South  Level Estimated
05:49PM 36.0455 127.2568 166° South  Level Estimated
05:50PM 35.9698 127.2796 166° South  Level Estimated
05:51PM 35.8941 127.3024 166° South  Level Estimated
05:52PM 35.8184 127.3252 166° South  Level Estimated
05:53PM 35.7427 127.3479 166° South  Level Estimated
05:54PM 35.6670 127.3706 166° South  Level Estimated
05:55PM 35.5913 127.3932 166° South  Level Estimated
05:56PM 35.5156 127.4157 166° South  Level Estimated
05:57PM 35.4398 127.4383 166° South  Level Estimated
05:58PM 35.3641 127.4608 166° South  Level Estimated
05:59PM 35.2884 127.4832 166° South  Level Estimated
06:00PM 35.2127 127.5056 166° South  Level Estimated
06:01PM 35.1369 127.5280 166° South  Level Estimated
06:02PM 35.0612 127.5503 166° South  Level Estimated
06:03PM 34.9854 127.5726 166° South  Level Estimated
06:04PM 34.9097 127.5948 166° South  Level Estimated
06:05PM 34.8398 127.6153 166° South  Level Estimated
06:06PM 34.8398 127.6153 180° South  Level Estimated
06:07PM 34.8398 127.6153 180° South  Level Estimated
06:08PM 34.8398 127.6153 180° South  Level Estimated
06:09PM 34.8398 127.6153 180° South  Level Estimated
06:10PM 34.8398 127.6153 180° South  Level Estimated
06:11PM 34.8398 127.6153 180° South  Level Estimated
06:12PM 34.8398 127.6153 180° South  Level Estimated